Time;durP1;ratioP1;P1;durP2;ratioP2;P2;SDS_P1;SDS_P2;PMS_P1;PMS_P2;Temp;Humidity;BMP_temperature;BMP_pressure;BME280_temperature;BME280_humidity;BME280_pressure;Samples;Min_cycle;Max_cycle;Signal;HPM_P1;HPM_P2
2022/11/19 00:01:30;;;;;;;23.20;12.45;;;;;;;-0.88;100.00;98175.07;1762310;80;21013;-70
2022/11/19 00:03:58;;;;;;;20.80;11.38;;;;;;;-0.86;100.00;98158.63;1762210;80;21027;-71
2022/11/19 00:06:28;;;;;;;17.73;10.50;;;;;;;-0.87;100.00;98149.74;1777603;80;21669;-71
2022/11/19 00:09:04;;;;;;;20.88;12.55;;;;;;;-0.86;100.00;98152.70;1752668;80;20998;-71
2022/11/19 00:14:29;;;;;;;18.62;10.18;;;;;;;-0.85;100.00;98143.54;1682358;84;21557;-70
2022/11/19 00:17:02;;;;;;;14.58;8.93;;;;;;;-0.82;100.00;98146.22;1682471;84;21158;-70
2022/11/19 00:19:34;;;;;;;14.95;9.10;;;;;;;-0.80;100.00;98138.12;1687788;81;21580;-70
2022/11/19 00:22:03;;;;;;;15.90;9.35;;;;;;;-0.79;100.00;98147.83;1765388;80;21463;-73
2022/11/19 00:24:38;;;;;;;13.43;8.28;;;;;;;-0.79;100.00;98137.05;1754782;80;21063;-73
2022/11/19 00:27:08;;;;;;;12.85;7.47;;;;;;;-0.77;100.00;98140.81;1774481;80;20963;-72
2022/11/19 00:29:40;;;;;;;13.32;8.13;;;;;;;-0.76;100.00;98137.84;1758789;80;20955;-71
2022/11/19 00:32:08;;;;;;;15.35;9.13;;;;;;;-0.75;100.00;98138.65;1756743;80;21348;-72
2022/11/19 00:34:37;;;;;;;12.30;7.83;;;;;;;-0.74;100.00;98131.64;1752535;80;20991;-71
2022/11/19 00:37:04;;;;;;;12.10;7.35;;;;;;;-0.72;100.00;98129.47;1769580;80;21455;-72
2022/11/19 00:39:34;;;;;;;12.13;7.45;;;;;;;-0.70;100.00;98130.00;1732921;80;21558;-71
2022/11/19 00:42:11;;;;;;;12.00;6.22;;;;;;;-0.68;100.00;98122.45;1765127;80;20971;-71
2022/11/19 00:44:46;;;;;;;10.58;6.35;;;;;;;-0.67;100.00;98121.91;1773316;80;21466;-71
2022/11/19 00:47:15;;;;;;;9.90;5.95;;;;;;;-0.61;100.00;98115.95;1760060;80;21102;-70
2022/11/19 00:49:50;;;;;;;12.73;6.75;;;;;;;-0.62;100.00;98107.05;1748537;80;20998;-70
2022/11/19 00:52:23;;;;;;;10.18;6.10;;;;;;;-0.60;100.00;98109.47;1749771;80;20916;-71
2022/11/19 00:54:57;;;;;;;9.63;6.30;;;;;;;-0.59;100.00;98096.27;1768664;80;21509;-70
2022/11/19 00:57:25;;;;;;;11.03;6.50;;;;;;;-0.58;100.00;98097.88;1760062;80;21163;-73
2022/11/19 00:59:58;;;;;;;10.13;6.42;;;;;;;-0.60;100.00;98090.06;1771738;80;21090;-71
2022/11/19 01:02:32;;;;;;;9.50;5.72;;;;;;;-0.56;100.00;98087.59;1733059;80;20928;-71
2022/11/19 01:05:05;;;;;;;9.33;5.95;;;;;;;-0.56;100.00;98086.23;1754503;80;20976;-70
2022/11/19 01:07:33;;;;;;;10.98;6.50;;;;;;;-0.57;100.00;98080.59;1770627;80;20994;-71
2022/11/19 01:10:06;;;;;;;8.80;5.78;;;;;;;-0.58;100.00;98072.27;1769124;80;21168;-70
2022/11/19 01:13:33;;;;;;;8.88;5.08;;;;;;;-0.57;100.00;98068.45;1759051;80;20960;-71
2022/11/19 01:15:11;;;;;;;8.83;5.25;;;;;;;-0.57;100.00;98064.41;1761060;80;20864;-72
2022/11/19 01:17:39;;;;;;;7.55;4.70;;;;;;;-0.57;100.00;98059.02;1759245;80;20932;-71
2022/11/19 01:20:13;;;;;;;7.50;4.80;;;;;;;-0.56;100.00;98058.74;1757059;80;21376;-71
2022/11/19 01:22:42;;;;;;;6.45;4.62;;;;;;;-0.55;100.00;98051.46;1769868;80;21177;-72
2022/11/19 01:25:15;;;;;;;6.70;4.15;;;;;;;-0.55;100.00;98043.38;1768377;80;20980;-72
2022/11/19 01:27:48;;;;;;;6.35;4.20;;;;;;;-0.55;100.00;98037.98;1745805;80;20946;-73
2022/11/19 01:30:16;;;;;;;7.72;4.62;;;;;;;-0.55;100.00;98037.98;1762779;80;20885;-72
2022/11/19 01:32:50;;;;;;;8.05;4.95;;;;;;;-0.54;100.00;98036.90;1733374;81;20987;-72
2022/11/19 01:35:21;;;;;;;7.22;4.45;;;;;;;-0.54;100.00;98032.86;1723424;81;21323;-72
2022/11/19 01:37:51;;;;;;;6.72;4.20;;;;;;;-0.52;100.00;98028.80;1732758;82;21471;-71
2022/11/19 01:40:18;;;;;;;7.28;4.30;;;;;;;-0.51;100.00;98020.16;1696086;83;21092;-71
2022/11/19 01:42:50;;;;;;;9.93;4.37;;;;;;;-0.52;100.00;98020.70;1724670;82;21237;-75
2022/11/19 01:45:47;;;;;;;7.53;4.37;;;;;;;-0.50;100.00;98017.19;1729478;82;20924;-71
2022/11/19 01:48:29;;;;;;;5.55;3.70;;;;;;;-0.49;100.00;98015.30;1726997;82;21570;-71
2022/11/19 01:51:01;;;;;;;6.62;3.75;;;;;;;-0.50;100.00;98005.06;1739173;81;21423;-72
2022/11/19 01:53:36;;;;;;;5.92;3.67;;;;;;;-0.51;100.00;97999.95;1725554;82;20920;-71
2022/11/19 01:56:09;;;;;;;4.60;3.00;;;;;;;-0.49;100.00;97997.78;1727944;81;21565;-72
2022/11/19 01:58:40;;;;;;;4.80;2.95;;;;;;;-0.47;100.00;97997.76;1697502;82;21110;-73
2022/11/19 02:01:16;;;;;;;3.83;2.77;;;;;;;-0.46;100.00;97993.17;1700529;81;20833;-72
2022/11/19 02:03:50;;;;;;;4.58;2.87;;;;;;;-0.45;100.00;97992.09;1701675;82;20943;-72
2022/11/19 02:06:18;;;;;;;;;;;;;;;-0.44;100.00;97997.73;1733498;82;20946;-72
2022/11/19 02:08:48;;;;;;;3.77;2.25;;;;;;;-0.44;100.00;97999.09;1690203;83;20138;-72
2022/11/19 02:11:38;;;;;;;3.47;2.15;;;;;;;-0.44;100.00;97995.05;1683371;84;21018;-71
2022/11/19 02:14:45;;;;;;;3.10;2.02;;;;;;;-0.44;100.00;97985.61;1686441;83;21175;-72
2022/11/19 02:17:51;;;;;;;3.67;2.47;;;;;;;-0.45;100.00;97988.84;1684445;83;21000;-72
2022/11/19 02:20:45;;;;;;;3.40;2.40;;;;;;;-0.43;100.00;97984.52;1703112;83;20968;-72
2022/11/19 02:23:42;;;;;;;3.35;2.15;;;;;;;-0.44;100.00;97978.86;1680496;83;21000;-72
2022/11/19 02:26:34;;;;;;;4.20;2.52;;;;;;;-0.45;100.00;97971.32;1692805;83;21003;-71
2022/11/19 02:29:32;;;;;;;4.65;2.72;;;;;;;-0.45;100.00;97967.82;1678980;83;22135;-72
2022/11/19 02:32:16;;;;;;;4.37;2.65;;;;;;;-0.45;100.00;97967.28;1653248;84;20990;-73
2022/11/19 02:34:55;;;;;;;3.95;2.72;;;;;;;-0.44;100.00;97973.47;1671260;84;21008;-71
2022/11/19 02:37:38;;;;;;;3.67;2.40;;;;;;;-0.43;100.00;97977.78;1653639;85;21031;-74
2022/11/19 02:40:09;;;;;;;;;;;;;;;-0.43;100.00;97980.48;1698925;83;20960;-73
2022/11/19 02:43:05;;;;;;;4.45;2.52;;;;;;;-0.43;100.00;97984.52;1668949;84;20110;-72
2022/11/19 02:45:48;;;;;;;4.85;2.52;;;;;;;-0.42;100.00;97982.89;1682465;84;21648;-72
2022/11/19 02:48:39;;;;;;;3.42;2.15;;;;;;;-0.43;100.00;97975.89;1719644;81;21004;-72
2022/11/19 02:51:09;;;;;;;3.87;2.42;;;;;;;-0.41;100.00;97983.15;1719994;81;20931;-71
2022/11/19 02:53:38;;;;;;;3.15;2.35;;;;;;;-0.40;100.00;97971.28;1705716;82;21056;-71
2022/11/19 02:56:51;;;;;;;4.50;2.52;;;;;;;-0.40;100.00;97969.12;1732658;82;20970;-72
2022/11/19 03:05:26;;;;;;;4.17;2.30;;;;;;;-0.40;100.00;97969.12;1721070;81;20963;-72
2022/11/19 03:07:53;;;;;;;4.85;2.50;;;;;;;-0.40;100.00;97959.14;1727537;82;20964;-72
2022/11/19 03:10:28;;;;;;;3.72;2.15;;;;;;;-0.38;100.00;97963.72;1722127;82;21161;-71
2022/11/19 03:16:40;;;;;;;5.72;3.27;;;;;;;-0.38;100.00;97952.93;1722615;82;21068;-71
2022/11/19 03:18:52;;;;;;;2.30;2.00;;;;;;;-0.38;100.00;97958.86;1723791;81;21058;-70
2022/11/19 03:21:38;;;;;;;3.52;2.05;;;;;;;-0.39;100.00;97962.65;1725369;81;21376;-72
2022/11/19 03:24:17;;;;;;;3.50;2.45;;;;;;;-0.40;100.00;97960.50;1731291;81;21233;-71
2022/11/19 03:27:01;;;;;;;3.00;2.40;;;;;;;-0.41;100.00;97945.41;1729953;81;20957;-71
2022/11/19 03:29:30;;;;;;;3.35;2.30;;;;;;;-0.39;100.00;97946.47;1724777;81;21089;-71
2022/11/19 03:32:10;;;;;;;3.95;2.33;;;;;;;-0.38;100.00;97942.69;1728275;81;26353;-71
2022/11/19 03:34:43;;;;;;;4.30;2.52;;;;;;;-0.40;100.00;97936.23;1727954;81;21021;-72
2022/11/19 03:37:15;;;;;;;4.67;2.47;;;;;;;-0.40;100.00;97935.42;1701072;82;20949;-70
2022/11/19 03:39:47;;;;;;;3.22;2.08;;;;;;;-0.39;100.00;97932.98;1714764;82;20900;-71
2022/11/19 03:42:18;;;;;;;4.00;2.45;;;;;;;-0.37;100.00;97944.30;1724561;82;21211;-70
2022/11/19 03:44:50;;;;;;;2.90;2.17;;;;;;;-0.38;100.00;97943.49;1734834;81;21000;-70
2022/11/19 03:47:32;;;;;;;5.60;2.62;;;;;;;-0.35;100.00;97949.67;1698987;81;20953;-71
2022/11/19 03:50:26;;;;;;;5.78;2.62;;;;;;;-0.35;100.00;97942.92;1725805;82;21145;-71
2022/11/19 03:53:00;;;;;;;5.42;3.10;;;;;;;-0.33;100.00;97943.99;1717108;81;20958;-72
2022/11/19 03:55:43;;;;;;;11.03;4.45;;;;;;;-0.33;100.00;97935.90;1730918;81;21512;-72
2022/11/19 03:58:15;;;;;;;7.85;3.95;;;;;;;-0.32;100.00;97942.09;1720496;81;21555;-71
2022/11/19 04:00:45;;;;;;;8.88;4.22;;;;;;;-0.35;100.00;97939.42;1738081;81;20993;-71
2022/11/19 04:03:17;;;;;;;8.60;3.80;;;;;;;-0.34;100.00;97939.14;1743360;81;21122;-70
2022/11/19 04:05:48;;;;;;;5.60;3.02;;;;;;;-0.33;100.00;97943.99;1738642;81;21526;-70
2022/11/19 04:08:21;;;;;;;6.22;3.02;;;;;;;-0.33;100.00;97950.73;1729311;81;21565;-71
2022/11/19 04:10:51;;;;;;;5.72;2.95;;;;;;;-0.34;100.00;97947.23;1740432;81;21599;-71
2022/11/19 04:13:26;;;;;;;4.85;2.75;;;;;;;-0.34;100.00;97949.13;1727088;81;21554;-72
2022/11/19 04:15:56;;;;;;;6.28;3.02;;;;;;;-0.34;100.00;97954.52;1742328;81;21122;-70
2022/11/19 04:18:25;;;;;;;5.58;2.90;;;;;;;-0.34;100.00;97950.47;1750134;81;20945;-70
2022/11/19 04:20:59;;;;;;;6.03;3.17;;;;;;;-0.32;100.00;97957.73;1746622;81;21476;-69
2022/11/19 04:23:27;;;;;;;8.43;4.15;;;;;;;-0.29;100.00;97957.71;1736802;81;20970;-70
2022/11/19 04:26:00;;;;;;;6.67;3.02;;;;;;;-0.29;100.00;97966.61;1740341;81;21544;-69
2022/11/19 04:28:28;;;;;;;5.17;3.05;;;;;;;-0.29;100.00;97964.45;1743509;82;21756;-69
2022/11/19 04:31:01;;;;;;;4.90;3.15;;;;;;;-0.30;100.00;97962.30;1741265;81;20998;-70
2022/11/19 04:33:30;;;;;;;7.40;3.65;;;;;;;-0.30;100.00;97969.04;1740935;82;21511;-71
2022/11/19 04:35:59;;;;;;;5.97;3.45;;;;;;;-0.31;100.00;97966.63;1735755;81;20898;-71
2022/11/19 04:38:28;;;;;;;4.80;2.95;;;;;;;-0.29;100.00;97969.84;1742557;81;20947;-71
2022/11/19 04:41:00;;;;;;;6.00;3.40;;;;;;;-0.29;100.00;97980.63;1742091;81;21416;-72
2022/11/19 04:43:32;;;;;;;5.22;2.98;;;;;;;-0.29;100.00;97981.98;1746270;81;21677;-70
2022/11/19 04:46:01;;;;;;;6.58;3.58;;;;;;;-0.28;100.00;97985.74;1727087;82;20958;-71
2022/11/19 04:48:32;;;;;;;4.00;2.95;;;;;;;-0.25;100.00;97988.41;1741168;82;20901;-71
2022/11/19 04:51:08;;;;;;;7.05;3.65;;;;;;;-0.25;100.00;97985.17;1703139;82;21591;-71
2022/11/19 04:53:39;;;;;;;5.08;3.47;;;;;;;-0.23;100.00;97995.68;1716965;82;21127;-70
2022/11/19 04:56:11;;;;;;;;;;;;;;;-0.24;100.00;98007.55;1736526;81;21464;-71
2022/11/19 04:58:36;;;;;;;6.00;3.70;;;;;;;-0.22;100.00;98009.42;1743978;81;20075;-68
2022/11/19 05:01:11;;;;;;;4.25;2.83;;;;;;;-0.22;100.00;98011.58;1725905;81;20997;-70
2022/11/19 05:03:43;;;;;;;5.25;3.08;;;;;;;-0.20;100.00;98009.41;1724606;81;21003;-72
2022/11/19 05:06:11;;;;;;;4.85;3.08;;;;;;;-0.20;100.00;98005.36;1744640;82;21170;-72
2022/11/19 05:08:38;;;;;;;4.37;3.30;;;;;;;-0.20;100.00;98005.91;1748718;81;21401;-71
2022/11/19 05:11:07;;;;;;;4.35;3.37;;;;;;;-0.20;100.00;98000.52;1745881;81;20866;-71
2022/11/19 05:13:35;;;;;;;5.67;3.40;;;;;;;-0.21;100.00;97998.36;1739870;82;21509;-72
2022/11/19 05:16:04;;;;;;;7.05;3.17;;;;;;;-0.22;100.00;98001.34;1741750;81;20989;-72
2022/11/19 05:18:40;;;;;;;6.33;3.90;;;;;;;-0.23;100.00;98003.23;1748661;82;20933;-72
2022/11/19 05:21:12;;;;;;;4.87;3.52;;;;;;;-0.22;100.00;98002.69;1745951;81;20913;-71
2022/11/19 05:23:45;;;;;;;4.20;3.40;;;;;;;-0.23;100.00;98005.92;1747557;82;20897;-72
2022/11/19 05:26:13;;;;;;;5.25;3.95;;;;;;;-0.23;100.00;98005.92;1748624;82;20976;-70
2022/11/19 05:28:45;;;;;;;6.60;3.70;;;;;;;-0.20;100.00;98009.41;1748979;81;20909;-72
2022/11/19 05:31:16;;;;;;;5.00;3.17;;;;;;;-0.19;100.00;98012.36;1740411;81;21347;-71
2022/11/19 05:33:47;;;;;;;6.80;3.42;;;;;;;-0.19;100.00;98023.70;1721009;81;21167;-71
2022/11/19 05:36:17;;;;;;;6.58;3.98;;;;;;;-0.19;100.00;98027.73;1734752;82;21488;-73
2022/11/19 05:38:47;;;;;;;5.10;3.85;;;;;;;-0.17;100.00;98032.31;1744778;81;20897;-71
2022/11/19 05:41:22;;;;;;;6.05;3.30;;;;;;;-0.17;100.00;98030.96;1738056;82;20981;-71
2022/11/19 05:43:56;;;;;;;8.33;3.98;;;;;;;-0.16;100.00;98032.57;1748659;81;21238;-73
2022/11/19 05:46:39;;;;;;;;;;;;;;;-0.16;100.00;98036.62;1739593;81;21457;-71
2022/11/19 05:49:00;;;;;;;9.28;4.55;;;;;;;-0.12;100.00;98047.91;1734663;82;20446;-73
2022/11/19 05:51:28;;;;;;;8.18;4.78;;;;;;;-0.09;100.00;98052.73;1708464;81;20932;-70
2022/11/19 05:53:58;;;;;;;9.30;4.80;;;;;;;-0.04;100.00;98060.79;1740705;81;21403;-70
2022/11/19 05:56:30;;;;;;;7.25;4.85;;;;;;;0.00;100.00;98063.73;1745268;80;21628;-70
2022/11/19 05:59:01;;;;;;;5.65;4.08;;;;;;;0.01;100.00;98059.91;1756216;80;21429;-72
2022/11/19 06:01:32;;;;;;;6.55;4.20;;;;;;;0.05;100.00;98068.25;1753890;80;20915;-73
2022/11/19 06:03:59;;;;;;;7.10;4.22;;;;;;;0.09;100.00;98074.69;1765699;80;20908;-71
2022/11/19 06:06:28;;;;;;;7.25;3.90;;;;;;;0.14;100.00;98067.89;1743425;80;20911;-73
2022/11/19 06:08:57;;;;;;;6.72;3.77;;;;;;;0.18;100.00;98071.09;1728247;80;21085;-72
2022/11/19 06:14:13;;;;;;;4.72;3.00;;;;;;;0.27;100.00;98073.98;1733433;81;21022;-72
2022/11/19 06:16:43;;;;;;;6.30;3.52;;;;;;;0.32;100.00;98077.44;1748099;81;20904;-72
2022/11/19 06:19:12;;;;;;;5.42;3.60;;;;;;;0.35;100.00;98079.31;1749896;81;20899;-71
2022/11/19 06:21:39;;;;;;;6.78;3.50;;;;;;;0.38;100.00;98089.54;1749863;81;21879;-72
2022/11/19 06:24:12;;;;;;;5.58;3.40;;;;;;;0.38;100.00;98098.45;1752438;81;20879;-71
2022/11/19 06:26:42;;;;;;;7.40;3.70;;;;;;;0.41;100.00;98103.82;1734997;82;20836;-72
2022/11/19 06:29:18;;;;;;;9.53;3.40;;;;;;;0.44;100.00;98101.36;1744786;81;21576;-72
2022/11/19 06:31:49;;;;;;;8.48;4.47;;;;;;;0.51;100.00;98101.83;1752882;81;20849;-68
2022/11/19 06:34:16;;;;;;;10.65;7.45;;;;;;;0.59;100.00;98105.77;1747952;81;21134;-68
2022/11/19 06:36:48;;;;;;;12.23;8.15;;;;;;;0.62;100.00;98106.01;1750065;81;21018;-70
2022/11/19 06:39:17;;;;;;;14.20;8.83;;;;;;;0.72;100.00;98107.80;1746209;80;20969;-68
2022/11/19 06:41:47;;;;;;;12.60;7.58;;;;;;;0.74;100.00;98111.56;1738438;82;20900;-72
2022/11/19 06:44:19;;;;;;;16.67;6.08;;;;;;;0.78;100.00;98114.76;1742444;81;20925;-71
2022/11/19 06:46:48;;;;;;;12.23;7.72;;;;;;;0.78;100.00;98119.36;1741619;82;21201;-71
2022/11/19 06:49:16;;;;;;;9.23;5.85;;;;;;;0.78;100.00;98113.95;1738014;81;21172;-70
2022/11/19 06:51:50;;;;;;;9.68;5.30;;;;;;;0.79;100.00;98121.77;1733525;80;21040;-74
2022/11/19 06:54:19;;;;;;;8.83;4.83;;;;;;;0.84;100.00;98134.42;1766258;80;21158;-72
2022/11/19 06:56:55;;;;;;;7.30;4.47;;;;;;;0.84;100.00;98131.72;1772978;80;20975;-72
2022/11/19 06:59:28;;;;;;;11.40;6.75;;;;;;;0.83;100.00;98135.52;1758230;79;20967;-72
2022/11/19 07:02:00;;;;;;;8.53;4.85;;;;;;;0.83;100.00;98131.45;1724892;80;20908;-74
2022/11/19 07:04:30;;;;;;;8.88;5.10;;;;;;;0.84;100.00;98139.28;1771134;79;20869;-80
2022/11/19 07:07:00;;;;;;;7.60;4.87;;;;;;;0.81;100.00;98141.75;1713731;81;20878;-74
2022/11/19 07:09:30;;;;;;;6.03;3.77;;;;;;;0.79;100.00;98147.44;1741652;80;20954;-74
2022/11/19 07:11:58;;;;;;;8.03;4.58;;;;;;;0.76;100.00;98143.95;1767230;80;21789;-72
2022/11/19 07:14:29;;;;;;;7.50;4.05;;;;;;;0.71;100.00;98153.45;1756046;79;20912;-70
2022/11/19 07:16:56;;;;;;;9.90;6.03;;;;;;;0.64;100.00;98164.59;1762283;79;20897;-72
2022/11/19 07:19:24;;;;;;;11.88;6.22;;;;;;;0.62;100.00;98166.77;1767254;80;21583;-72
2022/11/19 07:21:53;;;;;;;16.10;10.00;;;;;;;0.61;100.00;98173.27;1753818;80;20963;-71
2022/11/19 07:24:27;;;;;;;16.65;9.90;;;;;;;0.58;100.00;98178.42;1742191;81;20983;-71
2022/11/19 07:26:54;;;;;;;19.75;10.15;;;;;;;0.56;100.00;98191.44;1762931;80;20891;-72
2022/11/19 07:29:23;;;;;;;11.93;7.40;;;;;;;0.55;100.00;98191.98;1756932;79;20981;-70
2022/11/19 07:31:53;;;;;;;14.13;8.75;;;;;;;0.52;100.00;98188.50;1751936;81;20941;-72
2022/11/19 07:34:24;;;;;;;18.15;10.58;;;;;;;0.47;100.00;98187.73;1762231;80;21125;-71
2022/11/19 07:36:51;;;;;;;17.00;10.80;;;;;;;0.46;100.00;98192.88;1753543;80;21786;-75
2022/11/19 07:39:20;;;;;;;16.45;8.98;;;;;;;0.44;100.00;98194.50;1748171;80;20915;-74
2022/11/19 07:44:42;;;;;;;19.98;11.35;;;;;;;0.50;100.00;98200.13;1735242;81;20900;-70
2022/11/19 07:47:12;;;;;;;14.53;8.63;;;;;;;0.53;100.00;98204.16;1727381;82;20885;-69
2022/11/19 07:49:43;;;;;;;12.07;8.00;;;;;;;0.54;100.00;98216.02;1723297;82;22030;-72
2022/11/19 07:52:14;;;;;;;10.15;5.95;;;;;;;0.58;100.00;98223.80;1748825;81;21024;-70
2022/11/19 07:54:43;;;;;;;8.50;5.58;;;;;;;0.60;100.00;98224.86;1765682;80;21073;-70
2022/11/19 07:57:14;;;;;;;10.68;5.60;;;;;;;0.58;100.00;98228.39;1757306;80;37508;-71
2022/11/19 07:59:42;;;;;;;9.85;5.45;;;;;;;0.60;100.00;98231.61;1751300;80;21008;-72
2022/11/19 08:02:14;;;;;;;11.75;6.50;;;;;;;0.67;100.00;98241.55;1766901;80;21547;-73
2022/11/19 08:04:45;;;;;;;9.65;6.10;;;;;;;0.71;100.00;98257.45;1724651;80;21033;-73
2022/11/19 08:07:20;;;;;;;10.68;6.05;;;;;;;0.63;100.00;98262.11;1761188;80;21139;-72
2022/11/19 08:09:47;;;;;;;14.30;7.30;;;;;;;0.53;100.00;98269.77;1764866;80;21493;-73
2022/11/19 08:12:15;;;;;;;10.08;4.90;;;;;;;0.43;100.00;98281.98;1755456;80;20971;-72
2022/11/19 08:14:44;;;;;;;16.35;6.47;;;;;;;0.35;100.00;98280.42;1763107;80;21234;-73
2022/11/19 08:20:07;;;;;;;16.77;6.47;;;;;;;0.36;100.00;98289.59;1764866;80;20959;-74
2022/11/19 08:22:40;;;;;;;17.65;7.30;;;;;;;0.43;100.00;98294.68;1758188;80;20956;-73
2022/11/19 08:25:17;;;;;;;13.80;6.85;;;;;;;0.48;100.00;98307.61;1728170;82;20943;-73
2022/11/19 08:27:46;;;;;;;18.37;8.00;;;;;;;0.47;100.00;98314.64;1711809;80;21391;-74
2022/11/19 08:30:18;;;;;;;11.78;7.35;;;;;;;0.42;100.00;98321.42;1754451;81;20988;-74
2022/11/19 08:32:48;;;;;;;12.53;6.87;;;;;;;0.41;100.00;98325.20;1779341;80;20935;-73
2022/11/19 08:35:16;;;;;;;11.18;5.72;;;;;;;0.45;100.00;98322.20;1755138;80;20928;-73
2022/11/19 08:37:47;;;;;;;11.53;6.40;;;;;;;0.52;100.00;98335.66;1775868;80;20975;-72
2022/11/19 08:40:15;;;;;;;11.12;6.20;;;;;;;0.57;100.00;98345.09;1687057;84;21243;-72
2022/11/19 08:43:01;;;;;;;13.85;7.12;;;;;;;0.59;100.00;98350.98;1741568;82;20952;-72
2022/11/19 08:45:36;;;;;;;8.40;5.65;;;;;;;0.57;100.00;98353.73;1700079;83;20860;-73
2022/11/19 08:48:06;;;;;;;10.08;5.70;;;;;;;0.60;100.00;98365.30;1692957;83;20968;-73
2022/11/19 08:50:43;;;;;;;8.68;4.90;;;;;;;0.60;100.00;98376.09;1704492;83;20892;-72
2022/11/19 08:53:15;;;;;;;6.90;4.03;;;;;;;0.55;100.00;98381.02;1727743;82;21225;-73
2022/11/19 08:55:46;;;;;;;7.65;4.65;;;;;;;0.49;100.00;98387.53;1731737;82;20978;-73
2022/11/19 08:58:17;;;;;;;7.62;4.20;;;;;;;0.46;100.00;98398.88;1742641;82;21522;-73
2022/11/19 09:00:50;;;;;;;8.18;4.60;;;;;;;0.39;100.00;98400.27;1713158;83;20902;-73
2022/11/19 09:03:20;;;;;;;7.12;4.20;;;;;;;0.28;100.00;98400.31;1712090;82;20885;-73
2022/11/19 09:05:51;;;;;;;6.58;3.92;;;;;;;0.17;100.00;98404.13;1762087;80;21194;-73
2022/11/19 09:08:25;;;;;;;6.42;4.30;;;;;;;0.08;100.00;98395.53;1730212;82;21411;-73
2022/11/19 09:10:56;;;;;;;7.83;4.55;;;;;;;-0.03;100.00;98411.78;1690024;83;21020;-73
2022/11/19 09:13:24;;;;;;;7.83;4.92;;;;;;;-0.12;100.00;98411.27;1682932;84;20984;-72
2022/11/19 09:15:55;;;;;;;12.35;4.95;;;;;;;-0.16;100.00;98411.55;1655930;84;20903;-73
2022/11/19 09:18:29;;;;;;;10.68;5.42;;;;;;;-0.16;100.00;98412.35;1705179;83;21331;-73
2022/11/19 09:20:59;;;;;;;;;;;;;;;-0.15;100.00;98418.02;1688900;81;20998;-73
2022/11/19 09:23:28;;;;;;;9.50;5.55;;;;;;;-0.14;100.00;98429.61;1744915;80;20105;-72
2022/11/19 09:26:06;;;;;;;10.60;7.03;;;;;;;-0.20;100.00;98428.81;1760232;80;20944;-72
2022/11/19 09:28:34;;;;;;;10.38;6.67;;;;;;;-0.18;100.00;98433.94;1758288;81;21061;-72
2022/11/19 09:31:07;;;;;;;9.70;6.17;;;;;;;-0.16;100.00;98430.42;1764606;81;21176;-70
2022/11/19 09:33:37;;;;;;;10.88;6.97;;;;;;;-0.13;100.00;98430.69;1738327;81;20972;-72
2022/11/19 09:36:06;;;;;;;12.15;7.20;;;;;;;-0.05;100.00;98433.38;1753065;80;21470;-72
2022/11/19 09:38:39;;;;;;;12.13;6.60;;;;;;;-0.02;100.00;98424.73;1764993;80;20920;-72
2022/11/19 09:41:38;;;;;;;12.20;6.92;;;;;;;-0.03;100.00;98436.06;1760532;80;20989;-69
2022/11/19 09:44:52;;;;;;;12.35;6.58;;;;;;;-0.06;100.00;98438.50;1774045;80;21135;-72
2022/11/19 09:47:55;;;;;;;12.93;7.22;;;;;;;-0.09;100.00;98437.70;1740182;79;21070;-74
2022/11/19 09:50:29;;;;;;;16.97;7.40;;;;;;;-0.15;100.00;98444.99;1682896;83;21095;-73
2022/11/19 09:53:13;;;;;;;9.93;6.25;;;;;;;-0.22;100.00;98449.05;1690425;83;20979;-73
2022/11/19 09:55:46;;;;;;;10.53;6.30;;;;;;;-0.26;100.00;98450.13;1729861;79;21065;-73
2022/11/19 09:58:34;;;;;;;16.48;7.85;;;;;;;-0.31;100.00;98460.92;1780161;79;21230;-74
2022/11/19 10:01:03;;;;;;;13.95;7.15;;;;;;;-0.33;100.00;98456.34;1773512;79;21532;-74
2022/11/19 10:03:35;;;;;;;16.57;8.43;;;;;;;-0.36;100.00;98470.36;1743745;80;20898;-76
2022/11/19 10:06:23;;;;;;;12.35;7.55;;;;;;;-0.41;100.00;98483.31;1717674;82;20958;-74
2022/11/19 10:09:33;;;;;;;16.12;9.58;;;;;;;-0.48;100.00;98488.16;1724369;82;21009;-74
2022/11/19 10:12:13;;;;;;;14.55;8.25;;;;;;;-0.49;100.00;98495.17;1740165;81;21129;-73
2022/11/19 10:14:59;;;;;;;15.83;9.20;;;;;;;-0.52;100.00;98487.08;1719928;80;21057;-75
2022/11/19 10:17:50;;;;;;;14.68;8.10;;;;;;;-0.57;100.00;98491.13;1761937;80;20888;-69
2022/11/19 10:21:07;;;;;;;13.85;8.73;;;;;;;-0.61;100.00;98495.47;1739633;81;21648;-71
2022/11/19 10:24:02;;;;;;;17.62;9.43;;;;;;;-0.62;100.00;98510.55;1740036;81;20920;-72
2022/11/19 10:26:36;;;;;;;18.55;10.60;;;;;;;-0.65;100.00;98508.39;1750248;80;21115;-73
2022/11/19 10:29:18;;;;;;;18.77;10.03;;;;;;;-0.69;100.00;98519.71;1754439;80;21018;-74
2022/11/19 10:31:52;;;;;;;16.97;9.28;;;;;;;-0.76;100.00;98529.13;1760253;80;20916;-73
2022/11/19 10:34:31;;;;;;;15.30;8.10;;;;;;;-0.83;100.00;98536.66;1722869;80;20945;-74
2022/11/19 10:37:12;;;;;;;14.70;8.63;;;;;;;-0.85;100.00;98549.59;1762377;80;20983;-74
2022/11/19 10:39:49;;;;;;;17.30;8.43;;;;;;;-0.86;100.00;98551.47;1766838;80;21217;-72
2022/11/19 10:42:30;;;;;;;20.32;10.60;;;;;;;-0.89;100.00;98566.02;1761288;80;20924;-72
2022/11/19 10:45:05;;;;;;;16.50;9.90;;;;;;;-0.93;100.00;98571.12;1776356;80;20946;-72
2022/11/19 10:48:05;;;;;;;18.23;10.18;;;;;;;-0.88;100.00;98575.17;1746343;80;21014;-72
2022/11/19 10:50:32;;;;;;;15.80;9.50;;;;;;;-0.79;100.00;98575.47;1740107;80;21044;-71
2022/11/19 10:53:32;;;;;;;20.62;10.18;;;;;;;-0.73;100.00;98585.20;1760266;80;21152;-70
2022/11/19 10:56:15;;;;;;;20.50;11.10;;;;;;;-0.60;100.00;98579.84;1763549;80;20844;-76
2022/11/19 10:58:57;;;;;;;25.00;12.20;;;;;;;-0.41;100.00;98579.57;1725780;80;20982;-75
2022/11/19 11:01:37;;;;;;;18.23;9.85;;;;;;;-0.33;100.00;98583.09;1766531;80;20892;-74
2022/11/19 11:04:20;;;;;;;23.02;10.80;;;;;;;-0.30;100.00;98591.99;1767582;80;20943;-74
2022/11/19 11:06:58;;;;;;;19.82;11.65;;;;;;;-0.27;100.00;98605.48;1772542;80;21486;-73
2022/11/19 11:09:38;;;;;;;26.87;11.40;;;;;;;-0.33;100.00;98608.71;1757207;80;20972;-74
2022/11/19 11:15:20;;;;;;;17.20;9.50;;;;;;;-0.32;100.00;98625.70;1768036;81;20984;-72
2022/11/19 11:18:05;;;;;;;15.23;8.48;;;;;;;-0.37;100.00;98637.28;1761179;80;21419;-75
2022/11/19 11:20:32;;;;;;;17.55;10.32;;;;;;;-0.45;100.00;98644.55;1758248;80;21822;-76
2022/11/19 11:23:14;;;;;;;17.27;10.40;;;;;;;-0.53;100.00;98651.80;1762174;79;21106;-80
2022/11/19 11:26:12;;;;;;;16.95;10.48;;;;;;;-0.60;100.00;98653.43;1746791;79;20983;-73
2022/11/19 11:28:56;;;;;;;15.83;9.93;;;;;;;-0.63;100.00;98649.10;1790903;79;20908;-77
2022/11/19 11:31:37;;;;;;;16.17;9.05;;;;;;;-0.67;100.00;98659.60;1738498;79;20933;-82
2022/11/19 11:34:32;;;;;;;16.95;9.48;;;;;;;-0.72;100.00;98666.32;1729030;82;21287;-75
2022/11/19 11:37:07;;;;;;;13.45;7.42;;;;;;;-0.76;100.00;98680.86;1760062;79;21029;-71
2022/11/19 11:39:39;;;;;;;13.28;7.42;;;;;;;-0.79;100.00;98694.05;1765347;79;20904;-71
2022/11/19 11:42:12;;;;;;;16.42;8.40;;;;;;;-0.82;100.00;98687.84;1731267;82;20940;-70
2022/11/19 11:44:56;;;;;;;12.88;7.75;;;;;;;-0.85;100.00;98716.66;1762099;80;21019;-70
2022/11/19 11:47:38;;;;;;;13.80;8.03;;;;;;;-0.85;100.00;98724.73;1713445;81;20895;-68
2022/11/19 11:50:21;;;;;;;12.68;7.55;;;;;;;-0.81;100.00;98735.27;1734867;81;20997;-67
2022/11/19 11:52:54;;;;;;;9.20;6.47;;;;;;;-0.81;100.00;98734.73;1694334;82;21522;-69
2022/11/19 11:55:30;;;;;;;10.35;6.58;;;;;;;-0.83;100.00;98744.96;1739250;81;21443;-70
2022/11/19 11:58:07;;;;;;;15.58;7.40;;;;;;;-0.85;100.00;98755.19;1737969;81;20844;-70
2022/11/19 12:00:42;;;;;;;13.55;8.85;;;;;;;-0.90;100.00;98752.46;1720720;81;21548;-78
2022/11/19 12:03:20;;;;;;;15.15;8.48;;;;;;;-0.92;100.00;98766.73;1756869;80;21285;-75
2022/11/19 12:06:04;;;;;;;16.87;9.15;;;;;;;-0.93;100.00;98761.60;1717308;81;20958;-72
2022/11/19 12:09:04;;;;;;;22.40;10.98;;;;;;;-0.89;100.00;98765.40;1704702;82;21518;-77
2022/11/19 12:11:56;;;;;;;24.87;12.50;;;;;;;-0.83;100.00;98775.14;1731121;81;20951;-72
2022/11/19 12:15:06;;;;;;;17.42;9.88;;;;;;;-0.81;100.00;98780.55;1772248;79;21491;-78
2022/11/19 12:17:46;;;;;;;17.87;9.48;;;;;;;-0.83;100.00;98781.34;1702120;82;21003;-76
2022/11/19 12:20:43;;;;;;;18.52;9.40;;;;;;;-0.83;100.00;98804.78;1725883;82;21129;-79
2022/11/19 12:23:21;;;;;;;17.32;9.55;;;;;;;-0.87;100.00;98804.48;1719929;82;20956;-77
2022/11/19 12:25:58;;;;;;;20.27;10.75;;;;;;;-0.89;100.00;98814.72;1724431;81;21525;-69